Ramsey, IL

6:17 PM CST on December 27, 2014 (GMT -0600)
Taylorville Municipal | Change Station
CLOSE
Current Station
Airport
Location: Taylorville,
Elevation: 623 ft
Nearby Weather Stations

Elev 623 ft 39.54 °N, 89.33 °W | Updated 22 minutes ago

Rain
Rain
32 °F
Feels Like 26 °F
N
7
Wind Variable Wind from West

Today
High -- | Low -- °F
--% Chance of Precip.
Yesterday
High -- | Low -- °F
Precip. -- in
7:14 AM 4:40 PM
Waxing Crescent, 41% visible
Pressure 30.17 in
Visibility 4.0 miles
Clouds Overcast 700 ft
Windchill 26 °F
Dew Point 32 °F
Humidity 100%
Rainfall 0.00 in
Snow Depth Not available.
UV 0 out of 12
Pollen .10 out of 12
Air Quality Not available.
Flu Activity Not available.
METAR KTAZ 272355Z AUTO 28006KT 4SM -SN OVC007 00/00 A3017 RMK AO2

More Conditions Fewer Conditions

Pressure 30.17 in
Visibility 4.0 miles
Clouds Overcast 700 ft
Windchill 26 °F
Dew Point 32 °F
Humidity 100%
Rainfall 0.00 in
Snow Depth Not available.
UV 0 out of 12
Pollen .10 out of 12
Air Quality Not available.
Flu Activity Not available.
METAR KTAZ 272355Z AUTO 28006KT 4SM -SN OVC007 00/00 A3017 RMK AO2

More Conditions Fewer Conditions

10-Day Weather Forecast

Almanac

Astronomy

Dec. 27, 2014 Rise Set
Actual Time
Civil Twilight
Nautical Twilight
Astronomical Twilight
Moon
Length of Visible Light
Length of Day
Tomorrow will be .
, % of the Moon is Illuminated

Today's Extremes

State Highs State Lows

Community

WunderPhotos

Upload Photos

1,781,115 photos uploaded!

WunderBlogs® & News

Nearby

Air Quality

  Air Quality AQ Index Pollutant
Not available.

Snow Depth

Station Depth Elevation

Earthquake Activity

City Distance Mag. Time & Date
Minimum magnitude displayed is 2.5.

Coastal Water Temperatures

Place Temperature

Nearby Weather Stations